Time;durP1;ratioP1;P1;durP2;ratioP2;P2;SDS_P1;SDS_P2;PMS_P1;PMS_P2;Temp;Humidity;BMP_temperature;BMP_pressure;BME280_temperature;BME280_humidity;BME280_pressure;Samples;Min_cycle;Max_cycle;Signal;HPM_P1;HPM_P2
2023/03/04 00:01:03;;;;;;;29.42;14.88;;;1.00;99.90;;;;;;5015760;28;20080;-62
2023/03/04 00:03:30;;;;;;;31.63;15.23;;;1.10;99.90;;;;;;5012721;28;20092;-61
2023/03/04 00:05:55;;;;;;;31.35;14.65;;;1.10;99.90;;;;;;5017428;28;20146;-61
2023/03/04 00:08:21;;;;;;;31.70;14.48;;;1.10;99.90;;;;;;5019823;28;20128;-62
2023/03/04 00:10:46;;;;;;;26.63;13.52;;;1.10;99.90;;;;;;5020289;28;20142;-57
2023/03/04 00:13:12;;;;;;;26.08;13.38;;;1.10;99.90;;;;;;5015508;28;20050;-61
2023/03/04 00:15:38;;;;;;;23.08;13.27;;;1.10;99.90;;;;;;5013102;28;20064;-62
2023/03/04 00:18:03;;;;;;;27.42;14.35;;;1.10;99.90;;;;;;5006643;28;20041;-61
2023/03/04 00:20:29;;;;;;;27.80;13.90;;;1.10;99.90;;;;;;5016117;28;20042;-61
2023/03/04 00:22:54;;;;;;;23.95;14.00;;;1.20;99.90;;;;;;5001403;28;20038;-62
2023/03/04 00:25:20;;;;;;;32.63;13.70;;;1.20;99.90;;;;;;5004042;28;20125;-61
2023/03/04 00:27:46;;;;;;;27.55;13.05;;;1.20;99.90;;;;;;5006110;28;20083;-64
2023/03/04 00:30:12;;;;;;;27.75;13.13;;;1.20;99.90;;;;;;5004555;28;20058;-62
2023/03/04 00:32:37;;;;;;;27.00;13.48;;;1.30;99.90;;;;;;5019798;28;20181;-60
2023/03/04 00:35:05;;;;;;;24.27;12.68;;;1.30;99.90;;;;;;5027805;28;20094;-62
2023/03/04 00:37:30;;;;;;;25.88;12.95;;;1.30;99.90;;;;;;5018803;28;20510;-55
2023/03/04 00:39:56;;;;;;;28.80;13.98;;;1.30;99.90;;;;;;5023514;28;20029;-60
2023/03/04 00:42:22;;;;;;;28.10;14.43;;;1.20;99.90;;;;;;5014633;28;20052;-61
2023/03/04 00:44:48;;;;;;;29.92;14.32;;;1.20;99.90;;;;;;5023709;28;20132;-61
2023/03/04 00:47:14;;;;;;;28.77;13.10;;;1.20;99.90;;;;;;5019942;28;20041;-63
2023/03/04 00:49:39;;;;;;;29.60;15.60;;;1.20;99.90;;;;;;5021060;28;20051;-61
2023/03/04 00:52:05;;;;;;;28.35;14.30;;;1.20;99.90;;;;;;5016462;28;20057;-64
2023/03/04 00:54:31;;;;;;;24.98;13.25;;;1.20;99.90;;;;;;5024591;28;20049;-60
2023/03/04 00:56:57;;;;;;;27.42;12.93;;;1.20;99.90;;;;;;5020536;28;20132;-62
2023/03/04 00:59:23;;;;;;;22.85;12.93;;;1.20;99.90;;;;;;5023093;28;20132;-61
2023/03/04 01:01:48;;;;;;;26.23;13.80;;;1.20;99.90;;;;;;5007055;28;20460;-61
2023/03/04 01:04:14;;;;;;;29.00;14.13;;;1.20;99.90;;;;;;5002261;28;20061;-60
2023/03/04 01:06:40;;;;;;;21.58;11.57;;;1.20;99.90;;;;;;4997085;28;20141;-51
2023/03/04 01:09:05;;;;;;;31.25;14.25;;;1.20;99.90;;;;;;5004365;28;20038;-60
2023/03/04 01:11:31;;;;;;;26.85;14.48;;;1.20;99.90;;;;;;5002084;28;20609;-61
2023/03/04 01:13:57;;;;;;;36.83;15.15;;;1.20;99.90;;;;;;5003858;28;20041;-63
2023/03/04 01:16:22;;;;;;;31.80;15.13;;;1.10;99.90;;;;;;5002874;28;20050;-61
2023/03/04 01:18:48;;;;;;;29.98;14.73;;;1.10;99.90;;;;;;5001698;28;20041;-63
2023/03/04 01:21:13;;;;;;;32.72;14.45;;;1.10;99.90;;;;;;5001445;28;20048;-61
2023/03/04 01:23:39;;;;;;;36.75;15.25;;;1.10;99.90;;;;;;5001972;28;20050;-60
2023/03/04 01:26:05;;;;;;;35.13;14.90;;;1.10;99.90;;;;;;4998627;28;20029;-62
2023/03/04 01:28:34;;;;;;;37.95;15.63;;;1.00;99.90;;;;;;4998804;28;20042;-56
2023/03/04 01:31:01;;;;;;;34.30;13.05;;;1.00;99.90;;;;;;5000444;28;20171;-64
2023/03/04 01:33:27;;;;;;;32.75;13.68;;;1.00;99.90;;;;;;4999104;28;20192;-61
2023/03/04 01:35:52;;;;;;;30.83;12.70;;;1.00;99.90;;;;;;5013608;28;20536;-62
2023/03/04 01:38:18;;;;;;;35.60;13.55;;;1.00;99.90;;;;;;5000648;28;20429;-62
2023/03/04 01:40:44;;;;;;;37.05;13.00;;;1.00;99.90;;;;;;4999936;28;20034;-60
2023/03/04 01:43:19;;;;;;;31.73;12.93;;;1.10;99.90;;;;;;5000504;28;20132;-60
2023/03/04 01:45:47;;;;;;;35.15;12.40;;;1.10;99.90;;;;;;4999602;28;20042;-61
2023/03/04 01:48:17;;;;;;;25.48;11.77;;;1.10;99.90;;;;;;5000362;28;20085;-61
2023/03/04 01:50:43;;;;;;;24.92;11.60;;;1.00;99.90;;;;;;5000653;28;20069;-58
2023/03/04 01:53:25;;;;;;;37.03;12.55;;;1.00;99.90;;;;;;5001986;28;20227;-59
2023/03/04 01:55:54;;;;;;;39.55;11.85;;;1.00;99.90;;;;;;5001494;28;20050;-62
2023/03/04 01:58:22;;;;;;;31.25;11.50;;;0.90;99.90;;;;;;4996966;28;20052;-61
2023/03/04 02:00:48;;;;;;;38.83;12.75;;;1.00;99.90;;;;;;5000132;28;20042;-59
2023/03/04 02:03:18;;;;;;;35.45;12.85;;;1.00;99.90;;;;;;4999839;28;20136;-60
2023/03/04 02:05:47;;;;;;;36.65;11.07;;;1.00;99.90;;;;;;5000877;28;20282;-56
2023/03/04 02:08:13;;;;;;;37.72;12.13;;;1.00;99.90;;;;;;4997597;28;20107;-61
2023/03/04 02:10:42;;;;;;;32.08;11.82;;;1.10;99.90;;;;;;4999018;28;20042;-62
2023/03/04 02:13:08;;;;;;;34.92;10.40;;;1.00;99.90;;;;;;4996318;28;20433;-63
2023/03/04 02:15:33;;;;;;;30.15;11.45;;;1.10;99.90;;;;;;4999739;28;20037;-61
2023/03/04 02:18:00;;;;;;;31.13;10.80;;;1.10;99.90;;;;;;5000066;28;20421;-59
2023/03/04 02:20:47;;;;;;;26.17;9.85;;;1.10;99.90;;;;;;5001288;28;20038;-57
2023/03/04 02:23:18;;;;;;;34.75;10.57;;;1.10;99.90;;;;;;4996808;28;20052;-64
2023/03/04 02:25:58;;;;;;;32.33;10.18;;;1.10;99.90;;;;;;5000415;28;20080;-61
2023/03/04 02:28:23;;;;;;;25.33;10.70;;;1.10;99.90;;;;;;4998511;28;20502;-58
2023/03/04 02:30:49;;;;;;;25.33;9.55;;;1.10;99.90;;;;;;5000518;28;20037;-60
2023/03/04 02:33:17;;;;;;;35.15;10.15;;;1.10;99.90;;;;;;4997762;28;20121;-61
2023/03/04 02:35:43;;;;;;;43.25;11.63;;;1.10;99.90;;;;;;4998314;28;20046;-61
2023/03/04 02:38:10;;;;;;;35.72;11.15;;;1.10;99.90;;;;;;5000346;28;20037;-60
2023/03/04 02:40:39;;;;;;;39.20;12.23;;;1.10;99.90;;;;;;5001595;28;20061;-63
2023/03/04 02:43:05;;;;;;;38.10;11.52;;;1.10;99.90;;;;;;4997737;28;20092;-62
2023/03/04 02:45:42;;;;;;;33.95;11.35;;;1.10;99.90;;;;;;5001413;28;20080;-60
2023/03/04 02:48:09;;;;;;;37.08;11.80;;;1.10;99.90;;;;;;4998964;28;20038;-61
2023/03/04 02:50:39;;;;;;;29.88;11.52;;;1.20;99.90;;;;;;5001057;28;20045;-61
2023/03/04 02:53:05;;;;;;;29.23;12.40;;;1.10;99.90;;;;;;4998506;28;20038;-60
2023/03/04 02:55:31;;;;;;;38.78;12.30;;;1.10;99.90;;;;;;5000299;28;20096;-60
2023/03/04 02:57:57;;;;;;;34.63;11.10;;;1.10;99.90;;;;;;5003146;28;20634;-58
2023/03/04 03:00:22;;;;;;;34.22;12.48;;;1.20;99.90;;;;;;5001742;28;20037;-59
2023/03/04 03:02:48;;;;;;;34.88;12.18;;;1.10;99.90;;;;;;5000872;28;20374;-56
2023/03/04 03:05:14;;;;;;;39.17;11.95;;;1.10;99.90;;;;;;5003763;28;20473;-60
2023/03/04 03:07:39;;;;;;;34.53;12.02;;;1.10;99.90;;;;;;4998901;28;20038;-60
2023/03/04 03:10:05;;;;;;;30.65;11.70;;;1.10;99.90;;;;;;5005749;28;20045;-60
2023/03/04 03:12:31;;;;;;;36.08;11.82;;;1.00;99.90;;;;;;4999232;28;20042;-58
2023/03/04 03:14:56;;;;;;;29.00;10.82;;;1.10;99.90;;;;;;5002974;28;20839;-59
2023/03/04 03:17:22;;;;;;;43.65;12.65;;;1.10;99.90;;;;;;4996526;28;20082;-59
2023/03/04 03:19:47;;;;;;;39.22;12.57;;;1.10;99.90;;;;;;5001610;28;20088;-53
2023/03/04 03:22:13;;;;;;;38.80;12.18;;;1.10;99.90;;;;;;4997436;28;20049;-61
2023/03/04 03:24:38;;;;;;;38.72;11.88;;;1.20;99.90;;;;;;4999471;28;20042;-60
2023/03/04 03:27:04;;;;;;;40.90;11.13;;;1.10;99.90;;;;;;4997872;28;20053;-61
2023/03/04 03:29:30;;;;;;;36.47;11.27;;;1.00;99.90;;;;;;5000073;28;20037;-62
2023/03/04 03:31:55;;;;;;;30.42;9.98;;;1.00;99.90;;;;;;4997152;28;20103;-60
2023/03/04 03:34:22;;;;;;;28.92;10.10;;;1.10;99.90;;;;;;5000101;28;20049;-60
2023/03/04 03:36:47;;;;;;;35.63;10.95;;;1.10;99.90;;;;;;4997590;28;20049;-64
2023/03/04 03:39:14;;;;;;;41.38;12.80;;;1.20;99.90;;;;;;5001327;28;20046;-61
2023/03/04 03:41:40;;;;;;;35.15;11.25;;;1.10;99.90;;;;;;4998358;28;20134;-60
2023/03/04 03:44:06;;;;;;;28.05;10.27;;;1.10;99.90;;;;;;5000502;28;20133;-62
2023/03/04 03:46:32;;;;;;;31.23;9.82;;;1.20;99.90;;;;;;4998415;28;20129;-61
2023/03/04 03:48:57;;;;;;;37.42;11.10;;;1.20;99.90;;;;;;4999932;28;20489;-61
2023/03/04 03:51:23;;;;;;;41.83;10.02;;;1.20;99.90;;;;;;4998276;28;20073;-61
2023/03/04 03:53:48;;;;;;;24.83;9.35;;;1.20;99.90;;;;;;5000924;28;20068;-61
2023/03/04 03:56:14;;;;;;;47.50;10.52;;;1.20;99.90;;;;;;5003345;28;20052;-58
2023/03/04 03:58:39;;;;;;;35.25;9.45;;;1.20;99.90;;;;;;5006479;28;20133;-62
2023/03/04 04:01:05;;;;;;;28.15;9.52;;;1.20;99.90;;;;;;5012341;28;20111;-59
2023/03/04 04:03:30;;;;;;;40.80;9.90;;;1.20;99.90;;;;;;5001535;28;20038;-59
2023/03/04 04:05:56;;;;;;;31.85;9.45;;;1.20;99.90;;;;;;5002981;28;20050;-61
2023/03/04 04:08:22;;;;;;;36.75;9.25;;;1.20;99.90;;;;;;5001054;28;20046;-62
2023/03/04 04:10:47;;;;;;;31.50;9.40;;;1.20;99.90;;;;;;5003761;28;20031;-60
2023/03/04 04:13:13;;;;;;;37.78;10.00;;;1.20;99.90;;;;;;5001431;28;20040;-59
2023/03/04 04:15:38;;;;;;;36.05;9.48;;;1.20;99.90;;;;;;5001483;28;20176;-61
2023/03/04 04:18:05;;;;;;;35.75;9.25;;;1.20;99.90;;;;;;5005460;28;20083;-62
2023/03/04 04:20:31;;;;;;;41.25;10.10;;;1.20;99.90;;;;;;5002984;28;20045;-61
2023/03/04 04:22:57;;;;;;;26.25;8.38;;;1.30;99.90;;;;;;5004369;28;20042;-60
2023/03/04 04:25:22;;;;;;;28.88;8.23;;;1.20;99.90;;;;;;5003146;28;20045;-61
2023/03/04 04:27:48;;;;;;;37.42;10.07;;;1.30;99.90;;;;;;5003346;28;20037;-61
2023/03/04 04:30:14;;;;;;;43.33;9.38;;;1.20;99.90;;;;;;4999501;28;20050;-61
2023/03/04 04:32:39;;;;;;;32.53;8.98;;;1.20;99.90;;;;;;5018496;28;20061;-61
2023/03/04 04:35:06;;;;;;;35.50;8.43;;;1.20;99.90;;;;;;5023303;28;20138;-60
2023/03/04 04:37:32;;;;;;;31.67;8.82;;;1.20;99.90;;;;;;5020541;28;20862;-62
2023/03/04 04:39:57;;;;;;;38.28;10.45;;;1.20;99.90;;;;;;5026649;28;20124;-61
2023/03/04 04:42:23;;;;;;;31.17;9.00;;;1.20;99.90;;;;;;5021002;28;20182;-61
2023/03/04 04:44:49;;;;;;;47.00;10.95;;;1.10;99.90;;;;;;5026653;28;20053;-61
2023/03/04 04:47:15;;;;;;;26.80;8.82;;;1.20;99.90;;;;;;5019129;28;20067;-60
2023/03/04 04:49:40;;;;;;;25.30;8.32;;;1.20;99.90;;;;;;5023016;28;20075;-60
2023/03/04 04:52:06;;;;;;;30.08;9.00;;;1.30;99.90;;;;;;5018359;28;20085;-61
2023/03/04 04:54:31;;;;;;;24.60;8.68;;;1.20;99.90;;;;;;5022022;28;20124;-62
2023/03/04 04:56:57;;;;;;;29.38;8.85;;;1.20;99.90;;;;;;5022879;28;20041;-61
2023/03/04 04:59:22;;;;;;;37.17;9.20;;;1.20;99.90;;;;;;5027111;28;20045;-61
2023/03/04 05:01:48;;;;;;;37.75;11.23;;;1.10;99.90;;;;;;5021560;28;20663;-61
2023/03/04 05:04:14;;;;;;;33.65;9.50;;;1.10;99.90;;;;;;5021531;28;20033;-60
2023/03/04 05:06:40;;;;;;;36.92;9.38;;;1.20;99.90;;;;;;5023189;28;20065;-62
2023/03/04 05:09:06;;;;;;;31.38;9.45;;;1.20;99.90;;;;;;5022231;28;20092;-61
2023/03/04 05:11:31;;;;;;;31.92;10.32;;;1.20;99.90;;;;;;5022289;28;20603;-60
2023/03/04 05:13:57;;;;;;;32.58;10.00;;;1.20;99.90;;;;;;5024935;28;20037;-60
2023/03/04 05:16:22;;;;;;;42.03;9.43;;;1.10;99.90;;;;;;5020627;28;20041;-62
2023/03/04 05:18:48;;;;;;;28.20;9.13;;;1.20;99.90;;;;;;5025223;28;20041;-61
2023/03/04 05:21:14;;;;;;;28.48;8.30;;;1.20;99.90;;;;;;5022719;28;20501;-63
2023/03/04 05:23:41;;;;;;;36.20;8.68;;;1.20;99.90;;;;;;5020774;28;20111;-62
2023/03/04 05:26:08;;;;;;;41.33;9.65;;;1.20;99.90;;;;;;5020465;28;20108;-61
2023/03/04 05:28:34;;;;;;;30.52;8.73;;;1.20;99.90;;;;;;5024121;28;20490;-56
2023/03/04 05:31:01;;;;;;;31.05;8.13;;;1.20;99.90;;;;;;5022527;28;20113;-60
2023/03/04 05:33:27;;;;;;;37.63;8.10;;;1.20;99.90;;;;;;5015152;28;20045;-60
2023/03/04 05:35:53;;;;;;;29.20;8.32;;;1.20;99.90;;;;;;5021964;28;20052;-60
2023/03/04 05:38:20;;;;;;;38.13;10.27;;;1.20;99.90;;;;;;5018926;28;20033;-63
2023/03/04 05:40:47;;;;;;;30.20;8.48;;;1.20;99.90;;;;;;5023348;28;20065;-55
2023/03/04 05:43:13;;;;;;;26.98;7.60;;;1.20;99.90;;;;;;5020177;28;20048;-60
2023/03/04 05:45:39;;;;;;;24.67;7.57;;;1.10;99.90;;;;;;5022408;28;21068;-60
2023/03/04 05:48:05;;;;;;;29.02;8.73;;;1.20;99.90;;;;;;5020949;28;20124;-62
2023/03/04 05:50:31;;;;;;;26.52;7.78;;;1.20;99.90;;;;;;5020779;28;20038;-62
2023/03/04 05:52:57;;;;;;;26.42;7.80;;;1.20;99.90;;;;;;5020181;28;20041;-58
2023/03/04 05:55:23;;;;;;;26.73;7.65;;;1.30;99.90;;;;;;5021011;28;20045;-61
2023/03/04 05:57:49;;;;;;;22.10;6.88;;;1.20;99.90;;;;;;5019086;28;20033;-59
2023/03/04 06:00:15;;;;;;;38.65;9.23;;;1.10;99.90;;;;;;5023606;28;20668;-61
2023/03/04 06:02:42;;;;;;;26.02;8.10;;;1.10;99.90;;;;;;5021886;28;20033;-60
2023/03/04 06:05:08;;;;;;;25.55;6.20;;;1.20;99.90;;;;;;5020690;28;20108;-61
2023/03/04 06:07:34;;;;;;;19.58;5.85;;;1.20;99.90;;;;;;5019254;28;20706;-62
2023/03/04 06:10:00;;;;;;;20.63;7.57;;;1.20;99.90;;;;;;5023501;28;20044;-60
2023/03/04 06:12:27;;;;;;;31.27;6.55;;;1.20;99.90;;;;;;5018697;28;20037;-62
2023/03/04 06:14:53;;;;;;;16.20;5.13;;;1.30;99.90;;;;;;5017220;28;20049;-61
2023/03/04 06:17:19;;;;;;;21.50;5.72;;;1.30;99.90;;;;;;5015636;28;20106;-62
2023/03/04 06:19:44;;;;;;;31.05;6.03;;;1.30;99.90;;;;;;5020668;28;20044;-63
2023/03/04 06:22:11;;;;;;;19.67;5.50;;;1.30;99.90;;;;;;5021084;28;20041;-62
2023/03/04 06:24:36;;;;;;;20.30;6.35;;;1.30;99.90;;;;;;5023716;28;20048;-62
2023/03/04 06:27:02;;;;;;;19.55;4.90;;;1.30;99.90;;;;;;5020752;28;20045;-61
2023/03/04 06:29:28;;;;;;;18.92;5.32;;;1.40;99.90;;;;;;5024199;28;20096;-59
2023/03/04 06:31:54;;;;;;;29.20;6.32;;;1.40;99.90;;;;;;5018522;28;20128;-59
2023/03/04 06:34:20;;;;;;;18.60;4.82;;;1.40;99.90;;;;;;5021442;28;20041;-60
2023/03/04 06:36:45;;;;;;;15.93;5.20;;;1.40;99.90;;;;;;5017320;28;20044;-61
2023/03/04 06:39:11;;;;;;;23.30;5.32;;;1.40;99.90;;;;;;5022116;28;20385;-62
2023/03/04 06:41:37;;;;;;;30.13;6.88;;;1.40;99.90;;;;;;5017408;28;20042;-61
2023/03/04 06:44:04;;;;;;;26.75;4.90;;;1.40;99.90;;;;;;5020200;28;20629;-61
2023/03/04 06:46:29;;;;;;;19.65;5.07;;;1.30;99.90;;;;;;5018272;28;20088;-62
2023/03/04 06:48:55;;;;;;;25.63;5.60;;;1.30;99.90;;;;;;5026884;28;20122;-59
2023/03/04 06:51:21;;;;;;;18.20;4.57;;;1.40;99.90;;;;;;5018060;28;20504;-62
2023/03/04 06:53:47;;;;;;;18.45;4.85;;;1.30;99.90;;;;;;5026186;28;20030;-61
2023/03/04 06:56:15;;;;;;;17.20;5.00;;;1.40;99.90;;;;;;5021271;28;20041;-63
2023/03/04 06:58:42;;;;;;;19.83;4.50;;;1.30;99.90;;;;;;5020163;28;20068;-62
2023/03/04 07:01:16;;;;;;;11.07;4.95;;;1.40;99.90;;;;;;5019862;28;20045;-62
2023/03/04 07:03:42;;;;;;;34.58;7.20;;;1.40;99.90;;;;;;5020424;28;20033;-62
2023/03/04 07:06:11;;;;;;;13.93;4.50;;;1.50;99.90;;;;;;5021175;28;20046;-58
2023/03/04 07:08:38;;;;;;;22.98;5.25;;;1.50;99.90;;;;;;5009287;28;20137;-61
2023/03/04 07:11:04;;;;;;;25.20;5.35;;;1.50;99.90;;;;;;5020528;28;20067;-62
2023/03/04 07:13:29;;;;;;;15.10;3.58;;;1.40;99.90;;;;;;5017754;28;20041;-61
2023/03/04 07:15:55;;;;;;;13.45;3.95;;;1.30;99.90;;;;;;5023447;28;20833;-59
2023/03/04 07:18:20;;;;;;;13.18;3.97;;;1.40;99.90;;;;;;5026042;28;20107;-58
2023/03/04 07:20:46;;;;;;;21.98;4.38;;;1.40;99.90;;;;;;5030125;28;20124;-58
2023/03/04 07:23:12;;;;;;;21.25;4.13;;;1.30;99.90;;;;;;5024890;28;20029;-62
2023/03/04 07:25:37;;;;;;;23.73;4.10;;;1.30;99.90;;;;;;5024920;28;20040;-54
2023/03/04 07:28:03;;;;;;;20.25;5.20;;;1.30;99.90;;;;;;5024806;28;20073;-62
2023/03/04 07:30:29;;;;;;;14.07;4.00;;;1.30;99.90;;;;;;5026381;28;20091;-59
2023/03/04 07:32:56;;;;;;;17.20;3.85;;;1.30;99.90;;;;;;5029737;28;21044;-58
2023/03/04 07:35:22;;;;;;;17.73;4.20;;;1.30;99.90;;;;;;5027774;28;20037;-61
2023/03/04 07:37:47;;;;;;;15.15;3.70;;;1.40;99.90;;;;;;5027536;28;20064;-59
2023/03/04 07:40:13;;;;;;;14.32;3.70;;;1.40;99.90;;;;;;5030846;28;20026;-61
2023/03/04 07:42:39;;;;;;;12.73;5.13;;;1.40;99.90;;;;;;5026536;28;20041;-61
2023/03/04 07:45:06;;;;;;;11.88;3.65;;;1.40;99.90;;;;;;5031864;28;20041;-61
2023/03/04 07:47:32;;;;;;;15.85;3.35;;;1.40;99.90;;;;;;5025677;28;20672;-61
2023/03/04 07:49:58;;;;;;;18.55;3.85;;;1.50;99.90;;;;;;5032743;28;20121;-62
2023/03/04 07:52:23;;;;;;;17.23;3.40;;;1.60;99.90;;;;;;5023956;28;20045;-61
2023/03/04 07:54:49;;;;;;;14.65;3.42;;;1.60;99.90;;;;;;5031154;28;20053;-61
2023/03/04 07:57:15;;;;;;;12.93;3.17;;;1.70;99.90;;;;;;5024068;28;20037;-60
2023/03/04 07:59:40;;;;;;;19.88;3.58;;;1.80;99.90;;;;;;5031167;28;20529;-61
2023/03/04 08:02:06;;;;;;;14.35;3.20;;;1.80;99.90;;;;;;5019090;28;20118;-59
2023/03/04 08:04:32;;;;;;;10.80;3.13;;;1.80;99.90;;;;;;5026655;28;20041;-61
2023/03/04 08:06:57;;;;;;;11.93;3.17;;;1.80;99.90;;;;;;5022731;28;20037;-61
2023/03/04 08:09:23;;;;;;;14.10;3.05;;;1.80;99.90;;;;;;5028163;28;20053;-60
2023/03/04 08:11:49;;;;;;;12.63;3.65;;;1.80;99.90;;;;;;5023585;28;20037;-61
2023/03/04 08:14:15;;;;;;;9.30;2.97;;;1.80;99.90;;;;;;5025920;28;20663;-60
2023/03/04 08:16:40;;;;;;;9.60;3.10;;;1.80;99.90;;;;;;5019888;28;20377;-61
2023/03/04 08:19:07;;;;;;;9.48;2.58;;;1.80;99.90;;;;;;5022291;28;20037;-61
2023/03/04 08:21:33;;;;;;;7.32;2.40;;;1.90;99.90;;;;;;5021553;28;20037;-62
2023/03/04 08:24:06;;;;;;;14.38;3.50;;;1.90;99.90;;;;;;5022785;28;20056;-64
2023/03/04 08:26:37;;;;;;;7.10;3.38;;;2.00;99.90;;;;;;5017577;28;20119;-58
2023/03/04 08:29:04;;;;;;;15.23;3.70;;;2.00;99.90;;;;;;5024672;28;20034;-61
2023/03/04 08:31:31;;;;;;;11.20;2.72;;;2.10;99.90;;;;;;5021077;28;20087;-60
2023/03/04 08:33:56;;;;;;;8.52;2.75;;;2.20;99.90;;;;;;5021286;28;20064;-64
2023/03/04 08:36:22;;;;;;;14.77;3.10;;;2.10;99.90;;;;;;5019214;28;20428;-59
2023/03/04 08:38:48;;;;;;;10.68;3.03;;;2.20;99.90;;;;;;5021270;28;20048;-61
2023/03/04 08:41:14;;;;;;;10.18;2.90;;;2.10;99.90;;;;;;5021183;28;20055;-63
2023/03/04 08:43:40;;;;;;;8.90;2.50;;;2.00;99.90;;;;;;5021680;28;20685;-60
2023/03/04 08:46:06;;;;;;;15.80;3.63;;;2.00;99.90;;;;;;5022158;28;20053;-60
2023/03/04 08:48:31;;;;;;;11.07;2.97;;;2.00;99.90;;;;;;5017981;28;20717;-63
2023/03/04 08:50:57;;;;;;;13.57;2.90;;;2.00;99.90;;;;;;5021488;28;20045;-62
2023/03/04 08:53:23;;;;;;;13.60;3.03;;;2.00;99.90;;;;;;5019179;28;20047;-62
2023/03/04 08:55:51;;;;;;;8.85;2.55;;;2.20;99.90;;;;;;5022692;28;20042;-60
2023/03/04 08:58:16;;;;;;;8.88;3.55;;;2.10;99.90;;;;;;5016497;28;20037;-60
2023/03/04 09:00:47;;;;;;;10.50;2.60;;;2.20;99.90;;;;;;5021377;28;20045;-62
2023/03/04 09:03:13;;;;;;;9.85;4.90;;;2.30;99.90;;;;;;5018315;28;20124;-60
2023/03/04 09:05:39;;;;;;;9.60;2.90;;;2.50;99.90;;;;;;5021456;28;20046;-60
2023/03/04 09:08:05;;;;;;;8.10;2.53;;;2.50;99.90;;;;;;5019529;28;20060;-58
2023/03/04 09:10:30;;;;;;;8.70;3.00;;;2.60;99.90;;;;;;5021363;28;20759;-63
2023/03/04 09:12:57;;;;;;;9.15;2.08;;;2.70;99.90;;;;;;5020997;28;20037;-61
2023/03/04 09:15:23;;;;;;;11.20;2.50;;;2.60;99.90;;;;;;5020633;28;20866;-61
2023/03/04 09:17:49;;;;;;;12.85;2.90;;;2.80;99.90;;;;;;5020187;28;20041;-63
2023/03/04 09:20:15;;;;;;;11.57;3.20;;;2.90;99.90;;;;;;5021250;28;20037;-62
2023/03/04 09:22:41;;;;;;;11.38;2.47;;;3.00;99.90;;;;;;5019473;28;20307;-58
2023/03/04 09:25:08;;;;;;;9.55;2.40;;;3.10;99.90;;;;;;5022354;28;20037;-62
2023/03/04 09:27:33;;;;;;;6.28;2.40;;;3.20;99.90;;;;;;5019863;28;20446;-62
2023/03/04 09:29:59;;;;;;;10.68;3.00;;;3.20;99.90;;;;;;5024547;28;20124;-62
2023/03/04 09:32:25;;;;;;;6.82;1.95;;;3.20;99.90;;;;;;5018598;28;20049;-63
2023/03/04 09:34:50;;;;;;;7.38;2.17;;;3.10;99.90;;;;;;5026351;28;20041;-63
2023/03/04 09:37:16;;;;;;;10.63;2.30;;;3.20;99.90;;;;;;5018303;28;20128;-62
2023/03/04 09:39:42;;;;;;;4.85;2.17;;;3.40;99.90;;;;;;5040129;28;20033;-63
2023/03/04 09:42:13;;;;;;;8.25;2.83;;;3.40;99.90;;;;;;5022946;28;20090;-63
2023/03/04 09:44:41;;;;;;;5.68;1.63;;;3.30;99.90;;;;;;5026265;28;20045;-63
2023/03/04 09:47:16;;;;;;;8.98;2.05;;;3.30;99.90;;;;;;5017030;28;20050;-63
2023/03/04 09:49:45;;;;;;;7.63;1.90;;;3.50;99.90;;;;;;5024739;28;20034;-63
2023/03/04 09:52:19;;;;;;;5.93;1.63;;;3.50;99.90;;;;;;5023601;28;20041;-63
2023/03/04 09:55:15;;;;;;;4.03;1.30;;;3.50;99.90;;;;;;5018612;28;20033;-64
2023/03/04 09:58:08;;;;;;;4.95;1.17;;;3.60;99.90;;;;;;5018332;28;20465;-62
2023/03/04 10:00:43;;;;;;;5.53;1.33;;;3.60;99.90;;;;;;5020119;28;20041;-65
2023/03/04 10:03:09;;;;;;;3.10;1.13;;;3.70;99.90;;;;;;5021242;28;20033;-62
2023/03/04 10:05:49;;;;;;;3.30;1.02;;;3.80;99.90;;;;;;5018829;28;20037;-64
2023/03/04 10:08:36;;;;;;;2.25;1.20;;;3.80;99.90;;;;;;5022082;28;20037;-64
2023/03/04 10:11:03;;;;;;;;;;;3.80;99.90;;;;;;5021355;28;20145;-63
2023/03/04 10:14:00;;;;;;;2.88;1.27;;;3.80;99.90;;;;;;5016415;28;19921;-63
2023/03/04 10:16:34;;;;;;;3.17;1.30;;;3.50;99.90;;;;;;5018435;28;20103;-63
2023/03/04 10:19:44;;;;;;;4.07;1.20;;;3.40;99.90;;;;;;5021615;28;20126;-62
2023/03/04 10:22:25;;;;;;;8.98;1.45;;;3.40;99.90;;;;;;5010159;28;20661;-64
2023/03/04 10:24:54;;;;;;;4.65;1.20;;;3.20;99.90;;;;;;5022930;28;20053;-63
2023/03/04 10:27:20;;;;;;;2.33;1.10;;;3.10;99.90;;;;;;5014063;28;20091;-63
2023/03/04 10:29:45;;;;;;;4.35;1.25;;;3.00;99.90;;;;;;5023304;28;20033;-63
2023/03/04 10:32:16;;;;;;;4.07;1.20;;;3.10;99.90;;;;;;5016673;28;20127;-63
2023/03/04 10:34:42;;;;;;;3.03;1.65;;;3.10;99.90;;;;;;5021821;28;20033;-61
2023/03/04 10:37:08;;;;;;;3.92;1.30;;;3.10;99.90;;;;;;5018714;28;20465;-63
2023/03/04 10:39:38;;;;;;;2.25;1.40;;;3.20;99.90;;;;;;5020926;28;20065;-64
2023/03/04 10:42:21;;;;;;;4.30;1.20;;;3.30;99.90;;;;;;5019744;28;20041;-62
2023/03/04 10:44:58;;;;;;;3.92;1.30;;;3.40;99.90;;;;;;5030284;28;20033;-64
2023/03/04 10:47:28;;;;;;;3.83;1.15;;;3.50;99.90;;;;;;5014765;28;20160;-59
2023/03/04 10:49:58;;;;;;;2.90;1.45;;;3.40;99.90;;;;;;5027244;28;20041;-63
2023/03/04 10:52:49;;;;;;;2.47;1.00;;;3.30;99.90;;;;;;5019845;28;20610;-64
2023/03/04 10:55:17;;;;;;;3.78;1.05;;;3.30;99.90;;;;;;5021463;28;20036;-62
2023/03/04 10:57:48;;;;;;;1.88;1.33;;;3.20;99.90;;;;;;5021064;28;20033;-63
2023/03/04 11:00:16;;;;;;;2.78;1.05;;;3.10;99.90;;;;;;5020688;28;20073;-61
2023/03/04 11:02:43;;;;;;;1.75;1.20;;;3.20;99.90;;;;;;5015837;28;20038;-64
2023/03/04 11:05:08;;;;;;;1.83;1.13;;;3.10;99.90;;;;;;5020275;28;20343;-64
2023/03/04 11:07:43;;;;;;;4.05;1.63;;;3.20;99.90;;;;;;5017033;28;20637;-61
2023/03/04 11:10:30;;;;;;;2.42;1.33;;;3.30;99.90;;;;;;5031289;28;20092;-64
2023/03/04 11:12:59;;;;;;;;;;;3.50;99.90;;;;;;5022132;28;20122;-63
2023/03/04 11:15:28;;;;;;;6.80;1.60;;;3.60;99.90;;;;;;5018414;28;19964;-63
2023/03/04 11:17:58;;;;;;;4.72;1.40;;;3.70;99.90;;;;;;5022884;28;20088;-63
2023/03/04 11:20:32;;;;;;;3.80;1.60;;;3.80;99.90;;;;;;5024227;28;20673;-62
2023/03/04 11:23:34;;;;;;;4.18;1.60;;;3.90;99.90;;;;;;5023292;28;20052;-62
2023/03/04 11:26:09;;;;;;;3.42;1.13;;;4.00;99.90;;;;;;5020904;28;20033;-63
2023/03/04 11:29:00;;;;;;;3.92;1.70;;;4.00;99.90;;;;;;5022480;28;20460;-63
2023/03/04 11:31:46;;;;;;;4.45;1.58;;;4.00;99.90;;;;;;5018209;28;20073;-63
2023/03/04 11:34:37;;;;;;;3.05;1.80;;;4.00;99.90;;;;;;5019195;28;20044;-62
2023/03/04 11:37:23;;;;;;;7.28;3.35;;;3.70;99.90;;;;;;5011846;28;20045;-62
2023/03/04 11:40:10;;;;;;;3.15;1.90;;;3.80;99.90;;;;;;5020770;28;20657;-62
2023/03/04 11:42:44;;;;;;;5.15;1.77;;;3.80;99.90;;;;;;5016888;28;20042;-63
2023/03/04 11:45:16;;;;;;;4.80;2.85;;;3.90;99.90;;;;;;5020661;28;20644;-61
2023/03/04 11:48:06;;;;;;;4.55;1.73;;;3.80;99.90;;;;;;5015700;28;20315;-63
2023/03/04 11:50:48;;;;;;;4.63;1.80;;;3.80;99.90;;;;;;5018483;28;20037;-63
2023/03/04 11:53:19;;;;;;;3.15;1.67;;;3.60;99.90;;;;;;5019786;28;20124;-63
2023/03/04 11:56:24;;;;;;;3.47;1.60;;;3.40;99.90;;;;;;5018926;28;20505;-61
2023/03/04 11:59:24;;;;;;;4.43;2.20;;;3.40;99.90;;;;;;5022904;28;20029;-61
2023/03/04 12:02:10;;;;;;;4.47;2.10;;;3.40;99.90;;;;;;5017723;28;20387;-61
2023/03/04 12:05:11;;;;;;;6.63;2.47;;;3.30;99.90;;;;;;5020615;28;20042;-63
2023/03/04 12:07:53;;;;;;;4.13;2.00;;;3.40;99.90;;;;;;5018039;28;20461;-63
2023/03/04 12:10:38;;;;;;;3.40;2.15;;;3.40;99.90;;;;;;5019194;28;20446;-62
2023/03/04 12:13:39;;;;;;;5.07;1.77;;;3.30;99.90;;;;;;5019010;28;20067;-62
2023/03/04 12:16:23;;;;;;;4.95;1.83;;;3.30;99.90;;;;;;5023109;28;20128;-61
2023/03/04 12:19:25;;;;;;;6.60;1.77;;;3.30;99.90;;;;;;5021214;28;20092;-59
2023/03/04 12:22:12;;;;;;;7.88;1.65;;;3.20;99.90;;;;;;5021706;28;20041;-63
2023/03/04 12:24:50;;;;;;;;;;;3.20;99.90;;;;;;5028297;28;20061;-63
2023/03/04 12:27:31;;;;;;;3.78;1.65;;;3.10;99.90;;;;;;5019233;28;19952;-64
2023/03/04 12:30:15;;;;;;;3.08;2.00;;;3.20;99.90;;;;;;5027797;28;20038;-60
2023/03/04 12:32:56;;;;;;;5.85;1.65;;;3.30;99.90;;;;;;5000325;28;20406;-61
2023/03/04 12:35:45;;;;;;;4.03;1.42;;;3.30;99.90;;;;;;5009113;28;20545;-62
2023/03/04 12:38:32;;;;;;;3.10;1.65;;;3.40;99.90;;;;;;5004989;28;20061;-62
2023/03/04 12:41:10;;;;;;;6.55;2.55;;;3.50;99.90;;;;;;5004692;28;20068;-64
2023/03/04 12:43:41;;;;;;;2.88;1.60;;;3.60;99.90;;;;;;5004391;28;20041;-62
2023/03/04 12:46:13;;;;;;;5.28;1.70;;;3.60;99.90;;;;;;5002702;28;20095;-62
2023/03/04 12:48:43;;;;;;;2.97;1.80;;;3.50;99.90;;;;;;4999950;28;20049;-64
2023/03/04 12:51:34;;;;;;;4.18;1.63;;;3.50;99.90;;;;;;5002356;28;20041;-63
2023/03/04 12:54:19;;;;;;;4.35;1.63;;;3.60;99.90;;;;;;5002938;28;20049;-63
2023/03/04 12:56:49;;;;;;;3.33;1.83;;;3.70;99.90;;;;;;5000159;28;20045;-64
2023/03/04 12:59:19;;;;;;;3.85;2.10;;;3.90;99.90;;;;;;5006684;28;20049;-62